sensor_id;sensor_type;location;lat;lon;timestamp;P1;durP1;ratioP1;P2;durP2;ratioP2
70796;SDS011;63842;52.144;5.360;2022-12-29T00:02:15;9.27;;;3.20;;
70796;SDS011;63842;52.144;5.360;2022-12-29T00:04:43;7.32;;;3.10;;
70796;SDS011;63842;52.144;5.360;2022-12-29T00:07:10;7.30;;;3.00;;
70796;SDS011;63842;52.144;5.360;2022-12-29T00:09:37;6.78;;;2.67;;
70796;SDS011;63842;52.144;5.360;2022-12-29T00:12:05;7.32;;;2.80;;
70796;SDS011;63842;52.144;5.360;2022-12-29T00:14:32;7.05;;;2.65;;
70796;SDS011;63842;52.144;5.360;2022-12-29T00:17:18;7.70;;;2.50;;
70796;SDS011;63842;52.144;5.360;2022-12-29T00:19:45;7.72;;;2.85;;
70796;SDS011;63842;52.144;5.360;2022-12-29T00:22:32;7.45;;;2.92;;
70796;SDS011;63842;52.144;5.360;2022-12-29T00:25:18;7.50;;;2.78;;
70796;SDS011;63842;52.144;5.360;2022-12-29T00:28:04;6.47;;;2.40;;
70796;SDS011;63842;52.144;5.360;2022-12-29T00:30:50;7.75;;;2.70;;
70796;SDS011;63842;52.144;5.360;2022-12-29T00:33:37;6.57;;;2.60;;
70796;SDS011;63842;52.144;5.360;2022-12-29T00:39:01;8.05;;;2.88;;
70796;SDS011;63842;52.144;5.360;2022-12-29T00:41:50;8.05;;;2.50;;
70796;SDS011;63842;52.144;5.360;2022-12-29T00:44:36;5.85;;;2.47;;
70796;SDS011;63842;52.144;5.360;2022-12-29T00:47:03;7.03;;;2.60;;
70796;SDS011;63842;52.144;5.360;2022-12-29T00:49:31;5.78;;;2.30;;
70796;SDS011;63842;52.144;5.360;2022-12-29T00:52:04;6.22;;;2.13;;
70796;SDS011;63842;52.144;5.360;2022-12-29T00:54:33;6.88;;;2.50;;
70796;SDS011;63842;52.144;5.360;2022-12-29T00:57:07;6.03;;;2.53;;
70796;SDS011;63842;52.144;5.360;2022-12-29T00:59:35;6.82;;;2.28;;
70796;SDS011;63842;52.144;5.360;2022-12-29T01:02:02;7.38;;;2.55;;
70796;SDS011;63842;52.144;5.360;2022-12-29T01:04:29;5.50;;;2.00;;
70796;SDS011;63842;52.144;5.360;2022-12-29T01:06:58;6.50;;;2.10;;
70796;SDS011;63842;52.144;5.360;2022-12-29T01:09:25;5.60;;;2.10;;
70796;SDS011;63842;52.144;5.360;2022-12-29T01:12:11;6.72;;;2.30;;
70796;SDS011;63842;52.144;5.360;2022-12-29T01:14:39;6.82;;;2.20;;
70796;SDS011;63842;52.144;5.360;2022-12-29T01:17:07;6.45;;;2.10;;
70796;SDS011;63842;52.144;5.360;2022-12-29T01:19:34;7.78;;;2.00;;
70796;SDS011;63842;52.144;5.360;2022-12-29T01:22:02;5.30;;;2.00;;
70796;SDS011;63842;52.144;5.360;2022-12-29T01:24:29;7.55;;;2.13;;
70796;SDS011;63842;52.144;5.360;2022-12-29T01:26:56;7.38;;;2.00;;
70796;SDS011;63842;52.144;5.360;2022-12-29T01:29:24;5.35;;;1.90;;
70796;SDS011;63842;52.144;5.360;2022-12-29T01:31:51;5.25;;;1.95;;
70796;SDS011;63842;52.144;5.360;2022-12-29T01:34:18;5.72;;;2.20;;
70796;SDS011;63842;52.144;5.360;2022-12-29T01:36:46;5.70;;;2.00;;
70796;SDS011;63842;52.144;5.360;2022-12-29T01:39:13;5.80;;;1.90;;
70796;SDS011;63842;52.144;5.360;2022-12-29T01:41:41;6.88;;;1.85;;
70796;SDS011;63842;52.144;5.360;2022-12-29T01:47:23;4.88;;;1.60;;
70796;SDS011;63842;52.144;5.360;2022-12-29T01:49:53;5.47;;;1.90;;
70796;SDS011;63842;52.144;5.360;2022-12-29T01:52:21;5.70;;;1.70;;
70796;SDS011;63842;52.144;5.360;2022-12-29T01:54:50;5.30;;;1.90;;
70796;SDS011;63842;52.144;5.360;2022-12-29T01:57:21;5.47;;;1.70;;
70796;SDS011;63842;52.144;5.360;2022-12-29T02:00:06;5.03;;;1.90;;
70796;SDS011;63842;52.144;5.360;2022-12-29T02:02:37;6.13;;;2.03;;
70796;SDS011;63842;52.144;5.360;2022-12-29T02:05:11;5.05;;;2.03;;
70796;SDS011;63842;52.144;5.360;2022-12-29T02:07:43;4.15;;;1.77;;
70796;SDS011;63842;52.144;5.360;2022-12-29T02:10:11;5.43;;;1.95;;
70796;SDS011;63842;52.144;5.360;2022-12-29T02:12:40;4.65;;;1.90;;
70796;SDS011;63842;52.144;5.360;2022-12-29T02:15:07;7.53;;;2.08;;
70796;SDS011;63842;52.144;5.360;2022-12-29T02:23:13;5.10;;;1.80;;
70796;SDS011;63842;52.144;5.360;2022-12-29T02:30:51;5.07;;;1.90;;
70796;SDS011;63842;52.144;5.360;2022-12-29T02:36:15;6.68;;;2.00;;
70796;SDS011;63842;52.144;5.360;2022-12-29T02:44:56;5.88;;;1.60;;
70796;SDS011;63842;52.144;5.360;2022-12-29T02:47:39;6.03;;;1.60;;
70796;SDS011;63842;52.144;5.360;2022-12-29T02:50:23;4.35;;;1.50;;
70796;SDS011;63842;52.144;5.360;2022-12-29T02:53:02;4.22;;;1.50;;
70796;SDS011;63842;52.144;5.360;2022-12-29T02:55:33;3.42;;;1.27;;
70796;SDS011;63842;52.144;5.360;2022-12-29T02:58:17;4.47;;;1.35;;
70796;SDS011;63842;52.144;5.360;2022-12-29T03:00:54;5.82;;;1.20;;
70796;SDS011;63842;52.144;5.360;2022-12-29T03:03:28;2.85;;;1.08;;
70796;SDS011;63842;52.144;5.360;2022-12-29T03:06:11;4.63;;;1.25;;
70796;SDS011;63842;52.144;5.360;2022-12-29T03:11:16;3.22;;;1.00;;
70796;SDS011;63842;52.144;5.360;2022-12-29T03:14:03;3.80;;;1.20;;
70796;SDS011;63842;52.144;5.360;2022-12-29T03:16:53;2.90;;;1.02;;
70796;SDS011;63842;52.144;5.360;2022-12-29T03:19:28;4.93;;;1.10;;
70796;SDS011;63842;52.144;5.360;2022-12-29T03:21:59;4.40;;;1.10;;
70796;SDS011;63842;52.144;5.360;2022-12-29T03:24:53;2.22;;;0.88;;
70796;SDS011;63842;52.144;5.360;2022-12-29T03:27:26;2.95;;;1.30;;
70796;SDS011;63842;52.144;5.360;2022-12-29T03:30:26;5.30;;;1.45;;
70796;SDS011;63842;52.144;5.360;2022-12-29T03:32:55;4.43;;;1.13;;
70796;SDS011;63842;52.144;5.360;2022-12-29T03:35:27;4.78;;;1.20;;
70796;SDS011;63842;52.144;5.360;2022-12-29T03:40:39;2.80;;;1.02;;
70796;SDS011;63842;52.144;5.360;2022-12-29T03:43:13;2.78;;;1.13;;
70796;SDS011;63842;52.144;5.360;2022-12-29T03:45:44;2.75;;;1.00;;
70796;SDS011;63842;52.144;5.360;2022-12-29T03:48:12;4.80;;;1.40;;
70796;SDS011;63842;52.144;5.360;2022-12-29T03:50:40;3.83;;;1.10;;
70796;SDS011;63842;52.144;5.360;2022-12-29T03:53:08;3.70;;;1.25;;
70796;SDS011;63842;52.144;5.360;2022-12-29T03:55:37;3.08;;;1.10;;
70796;SDS011;63842;52.144;5.360;2022-12-29T03:58:04;4.22;;;1.10;;
70796;SDS011;63842;52.144;5.360;2022-12-29T04:01:07;4.72;;;1.38;;
70796;SDS011;63842;52.144;5.360;2022-12-29T04:03:36;4.18;;;1.50;;
70796;SDS011;63842;52.144;5.360;2022-12-29T04:06:04;6.10;;;1.52;;
70796;SDS011;63842;52.144;5.360;2022-12-29T04:08:53;5.25;;;1.50;;
70796;SDS011;63842;52.144;5.360;2022-12-29T04:11:21;4.65;;;1.60;;
70796;SDS011;63842;52.144;5.360;2022-12-29T04:13:55;4.03;;;1.30;;
70796;SDS011;63842;52.144;5.360;2022-12-29T04:16:24;5.20;;;1.65;;
70796;SDS011;63842;52.144;5.360;2022-12-29T04:18:51;6.07;;;1.50;;
70796;SDS011;63842;52.144;5.360;2022-12-29T04:21:19;6.05;;;1.70;;
70796;SDS011;63842;52.144;5.360;2022-12-29T04:23:47;5.30;;;1.40;;
70796;SDS011;63842;52.144;5.360;2022-12-29T04:26:16;3.33;;;1.50;;
70796;SDS011;63842;52.144;5.360;2022-12-29T04:28:58;4.50;;;1.52;;
70796;SDS011;63842;52.144;5.360;2022-12-29T04:31:44;7.75;;;1.48;;
70796;SDS011;63842;52.144;5.360;2022-12-29T04:34:12;5.35;;;1.40;;
70796;SDS011;63842;52.144;5.360;2022-12-29T04:36:39;5.60;;;1.20;;
70796;SDS011;63842;52.144;5.360;2022-12-29T04:39:07;5.78;;;1.25;;
70796;SDS011;63842;52.144;5.360;2022-12-29T04:41:36;5.78;;;1.25;;
70796;SDS011;63842;52.144;5.360;2022-12-29T04:44:06;5.50;;;1.17;;
70796;SDS011;63842;52.144;5.360;2022-12-29T04:46:56;8.00;;;1.30;;
70796;SDS011;63842;52.144;5.360;2022-12-29T04:49:59;6.78;;;1.17;;
70796;SDS011;63842;52.144;5.360;2022-12-29T04:52:46;6.90;;;1.08;;
70796;SDS011;63842;52.144;5.360;2022-12-29T04:55:15;9.45;;;1.33;;
70796;SDS011;63842;52.144;5.360;2022-12-29T04:57:43;4.88;;;1.20;;
70796;SDS011;63842;52.144;5.360;2022-12-29T05:00:15;4.13;;;1.40;;
70796;SDS011;63842;52.144;5.360;2022-12-29T05:02:44;4.30;;;1.08;;
70796;SDS011;63842;52.144;5.360;2022-12-29T05:05:13;6.47;;;1.40;;
70796;SDS011;63842;52.144;5.360;2022-12-29T05:07:44;7.53;;;1.35;;
70796;SDS011;63842;52.144;5.360;2022-12-29T05:10:11;7.70;;;1.65;;
70796;SDS011;63842;52.144;5.360;2022-12-29T05:12:39;4.20;;;1.27;;
70796;SDS011;63842;52.144;5.360;2022-12-29T05:15:08;3.30;;;1.02;;
70796;SDS011;63842;52.144;5.360;2022-12-29T05:17:37;5.90;;;1.20;;
70796;SDS011;63842;52.144;5.360;2022-12-29T05:20:06;6.55;;;1.20;;
70796;SDS011;63842;52.144;5.360;2022-12-29T05:22:34;10.35;;;1.50;;
70796;SDS011;63842;52.144;5.360;2022-12-29T05:25:03;11.48;;;1.30;;
70796;SDS011;63842;52.144;5.360;2022-12-29T05:27:37;4.20;;;1.30;;
70796;SDS011;63842;52.144;5.360;2022-12-29T05:30:15;9.35;;;1.42;;
70796;SDS011;63842;52.144;5.360;2022-12-29T05:32:45;7.82;;;1.45;;
70796;SDS011;63842;52.144;5.360;2022-12-29T05:35:13;6.65;;;1.63;;
70796;SDS011;63842;52.144;5.360;2022-12-29T05:37:40;9.50;;;1.20;;
70796;SDS011;63842;52.144;5.360;2022-12-29T05:40:08;7.45;;;1.30;;
70796;SDS011;63842;52.144;5.360;2022-12-29T05:42:35;4.90;;;0.85;;
70796;SDS011;63842;52.144;5.360;2022-12-29T05:45:21;10.02;;;1.92;;
70796;SDS011;63842;52.144;5.360;2022-12-29T05:51:06;11.02;;;1.50;;
70796;SDS011;63842;52.144;5.360;2022-12-29T05:53:46;10.25;;;2.70;;
70796;SDS011;63842;52.144;5.360;2022-12-29T05:56:14;7.93;;;1.38;;
70796;SDS011;63842;52.144;5.360;2022-12-29T05:58:44;10.73;;;1.25;;
70796;SDS011;63842;52.144;5.360;2022-12-29T06:01:11;9.93;;;1.48;;
70796;SDS011;63842;52.144;5.360;2022-12-29T06:03:40;7.60;;;1.60;;
70796;SDS011;63842;52.144;5.360;2022-12-29T06:06:13;7.30;;;1.25;;
70796;SDS011;63842;52.144;5.360;2022-12-29T06:08:41;7.57;;;1.35;;
70796;SDS011;63842;52.144;5.360;2022-12-29T06:11:09;6.65;;;1.40;;
70796;SDS011;63842;52.144;5.360;2022-12-29T06:13:39;7.65;;;1.27;;
70796;SDS011;63842;52.144;5.360;2022-12-29T06:16:07;8.82;;;1.30;;
70796;SDS011;63842;52.144;5.360;2022-12-29T06:18:36;7.88;;;1.25;;
70796;SDS011;63842;52.144;5.360;2022-12-29T06:21:03;9.18;;;1.17;;
70796;SDS011;63842;52.144;5.360;2022-12-29T06:23:31;9.05;;;1.35;;
70796;SDS011;63842;52.144;5.360;2022-12-29T06:25:58;10.80;;;1.15;;
70796;SDS011;63842;52.144;5.360;2022-12-29T06:28:26;8.27;;;1.10;;
70796;SDS011;63842;52.144;5.360;2022-12-29T06:30:53;12.48;;;1.40;;
70796;SDS011;63842;52.144;5.360;2022-12-29T06:33:21;5.50;;;1.00;;
70796;SDS011;63842;52.144;5.360;2022-12-29T06:35:49;12.15;;;1.70;;
70796;SDS011;63842;52.144;5.360;2022-12-29T06:38:16;9.13;;;1.65;;
70796;SDS011;63842;52.144;5.360;2022-12-29T06:40:43;7.85;;;1.70;;
70796;SDS011;63842;52.144;5.360;2022-12-29T06:43:14;9.60;;;1.52;;
70796;SDS011;63842;52.144;5.360;2022-12-29T06:45:54;10.48;;;1.58;;
70796;SDS011;63842;52.144;5.360;2022-12-29T06:48:22;12.95;;;2.05;;
70796;SDS011;63842;52.144;5.360;2022-12-29T06:50:49;6.68;;;1.40;;
70796;SDS011;63842;52.144;5.360;2022-12-29T06:53:17;9.32;;;1.92;;
70796;SDS011;63842;52.144;5.360;2022-12-29T06:55:45;8.68;;;1.42;;
70796;SDS011;63842;52.144;5.360;2022-12-29T06:58:12;8.38;;;1.48;;
70796;SDS011;63842;52.144;5.360;2022-12-29T07:00:40;7.28;;;1.65;;
70796;SDS011;63842;52.144;5.360;2022-12-29T07:03:07;10.75;;;1.63;;
70796;SDS011;63842;52.144;5.360;2022-12-29T07:05:34;10.20;;;1.60;;
70796;SDS011;63842;52.144;5.360;2022-12-29T07:08:02;6.85;;;1.48;;
70796;SDS011;63842;52.144;5.360;2022-12-29T07:10:29;9.80;;;1.40;;
70796;SDS011;63842;52.144;5.360;2022-12-29T07:12:56;10.93;;;1.50;;
70796;SDS011;63842;52.144;5.360;2022-12-29T07:15:24;10.90;;;1.67;;
70796;SDS011;63842;52.144;5.360;2022-12-29T07:17:51;8.57;;;1.45;;
70796;SDS011;63842;52.144;5.360;2022-12-29T07:20:18;9.38;;;1.50;;
70796;SDS011;63842;52.144;5.360;2022-12-29T07:22:52;12.35;;;1.20;;
70796;SDS011;63842;52.144;5.360;2022-12-29T07:25:19;9.32;;;1.50;;
70796;SDS011;63842;52.144;5.360;2022-12-29T07:27:46;10.77;;;1.40;;
70796;SDS011;63842;52.144;5.360;2022-12-29T07:30:14;5.13;;;0.90;;
70796;SDS011;63842;52.144;5.360;2022-12-29T07:32:42;6.07;;;1.20;;
70796;SDS011;63842;52.144;5.360;2022-12-29T07:35:10;4.90;;;1.10;;
70796;SDS011;63842;52.144;5.360;2022-12-29T07:37:37;7.03;;;1.00;;
70796;SDS011;63842;52.144;5.360;2022-12-29T07:40:04;5.68;;;1.27;;
70796;SDS011;63842;52.144;5.360;2022-12-29T07:42:32;6.05;;;1.17;;
70796;SDS011;63842;52.144;5.360;2022-12-29T07:44:59;8.85;;;1.17;;
70796;SDS011;63842;52.144;5.360;2022-12-29T07:47:32;7.03;;;1.50;;
70796;SDS011;63842;52.144;5.360;2022-12-29T07:49:59;8.43;;;1.38;;
70796;SDS011;63842;52.144;5.360;2022-12-29T07:52:27;8.55;;;1.88;;
70796;SDS011;63842;52.144;5.360;2022-12-29T07:54:54;9.02;;;1.50;;
70796;SDS011;63842;52.144;5.360;2022-12-29T07:57:21;8.77;;;1.70;;
70796;SDS011;63842;52.144;5.360;2022-12-29T07:59:56;7.75;;;1.90;;
70796;SDS011;63842;52.144;5.360;2022-12-29T08:02:24;10.45;;;1.50;;
70796;SDS011;63842;52.144;5.360;2022-12-29T08:04:52;8.38;;;1.77;;
70796;SDS011;63842;52.144;5.360;2022-12-29T08:07:20;12.30;;;2.38;;
70796;SDS011;63842;52.144;5.360;2022-12-29T08:09:47;9.05;;;1.73;;
70796;SDS011;63842;52.144;5.360;2022-12-29T08:12:14;10.77;;;1.60;;
70796;SDS011;63842;52.144;5.360;2022-12-29T08:14:41;9.98;;;1.60;;
70796;SDS011;63842;52.144;5.360;2022-12-29T08:17:09;9.95;;;1.48;;
70796;SDS011;63842;52.144;5.360;2022-12-29T08:19:36;10.73;;;1.65;;
70796;SDS011;63842;52.144;5.360;2022-12-29T08:22:04;7.35;;;1.42;;
70796;SDS011;63842;52.144;5.360;2022-12-29T08:24:31;10.00;;;1.60;;
70796;SDS011;63842;52.144;5.360;2022-12-29T08:26:58;7.53;;;1.15;;
70796;SDS011;63842;52.144;5.360;2022-12-29T08:29:38;9.15;;;2.03;;
70796;SDS011;63842;52.144;5.360;2022-12-29T08:32:05;10.13;;;1.83;;
70796;SDS011;63842;52.144;5.360;2022-12-29T08:34:33;11.35;;;1.95;;
70796;SDS011;63842;52.144;5.360;2022-12-29T08:37:00;11.93;;;1.98;;
70796;SDS011;63842;52.144;5.360;2022-12-29T08:39:27;11.40;;;1.48;;
70796;SDS011;63842;52.144;5.360;2022-12-29T08:41:55;6.13;;;1.35;;
70796;SDS011;63842;52.144;5.360;2022-12-29T08:44:22;7.95;;;1.50;;
70796;SDS011;63842;52.144;5.360;2022-12-29T08:46:49;12.10;;;1.60;;
70796;SDS011;63842;52.144;5.360;2022-12-29T08:49:16;8.45;;;1.60;;
70796;SDS011;63842;52.144;5.360;2022-12-29T08:51:44;8.40;;;1.65;;
70796;SDS011;63842;52.144;5.360;2022-12-29T08:56:40;7.95;;;1.42;;
70796;SDS011;63842;52.144;5.360;2022-12-29T08:59:08;9.52;;;1.60;;
70796;SDS011;63842;52.144;5.360;2022-12-29T09:01:36;12.02;;;1.83;;
70796;SDS011;63842;52.144;5.360;2022-12-29T09:04:07;9.43;;;1.30;;
70796;SDS011;63842;52.144;5.360;2022-12-29T09:06:43;11.68;;;1.67;;
70796;SDS011;63842;52.144;5.360;2022-12-29T09:09:10;11.50;;;1.88;;
70796;SDS011;63842;52.144;5.360;2022-12-29T09:11:38;8.43;;;1.60;;
70796;SDS011;63842;52.144;5.360;2022-12-29T09:14:05;11.32;;;1.58;;
70796;SDS011;63842;52.144;5.360;2022-12-29T09:16:33;8.23;;;1.50;;
70796;SDS011;63842;52.144;5.360;2022-12-29T09:19:00;9.23;;;1.35;;
70796;SDS011;63842;52.144;5.360;2022-12-29T09:21:28;9.57;;;1.25;;
70796;SDS011;63842;52.144;5.360;2022-12-29T09:23:55;6.45;;;1.33;;
70796;SDS011;63842;52.144;5.360;2022-12-29T09:26:23;10.75;;;1.45;;
70796;SDS011;63842;52.144;5.360;2022-12-29T09:28:50;9.85;;;1.23;;
70796;SDS011;63842;52.144;5.360;2022-12-29T09:31:17;7.25;;;1.10;;
70796;SDS011;63842;52.144;5.360;2022-12-29T09:33:45;7.20;;;1.35;;
70796;SDS011;63842;52.144;5.360;2022-12-29T09:36:12;7.78;;;1.30;;
70796;SDS011;63842;52.144;5.360;2022-12-29T09:38:40;10.02;;;1.27;;
70796;SDS011;63842;52.144;5.360;2022-12-29T09:46:27;9.70;;;1.50;;
70796;SDS011;63842;52.144;5.360;2022-12-29T09:49:00;6.05;;;1.25;;
70796;SDS011;63842;52.144;5.360;2022-12-29T09:51:31;8.27;;;1.33;;
70796;SDS011;63842;52.144;5.360;2022-12-29T09:54:04;10.32;;;1.70;;
70796;SDS011;63842;52.144;5.360;2022-12-29T09:56:37;5.32;;;1.73;;
70796;SDS011;63842;52.144;5.360;2022-12-29T09:59:12;10.80;;;1.75;;
70796;SDS011;63842;52.144;5.360;2022-12-29T10:01:46;7.07;;;1.63;;
70796;SDS011;63842;52.144;5.360;2022-12-29T10:04:16;7.30;;;1.65;;
70796;SDS011;63842;52.144;5.360;2022-12-29T10:07:03;6.53;;;1.50;;
70796;SDS011;63842;52.144;5.360;2022-12-29T10:12:45;8.52;;;1.70;;
70796;SDS011;63842;52.144;5.360;2022-12-29T10:17:52;8.60;;;1.70;;
70796;SDS011;63842;52.144;5.360;2022-12-29T10:20:38;8.95;;;1.70;;
70796;SDS011;63842;52.144;5.360;2022-12-29T10:23:24;8.73;;;1.88;;
70796;SDS011;63842;52.144;5.360;2022-12-29T10:25:59;7.07;;;1.63;;
70796;SDS011;63842;52.144;5.360;2022-12-29T10:28:42;7.45;;;1.58;;
70796;SDS011;63842;52.144;5.360;2022-12-29T10:31:13;7.40;;;1.73;;
70796;SDS011;63842;52.144;5.360;2022-12-29T10:33:43;7.00;;;1.33;;
70796;SDS011;63842;52.144;5.360;2022-12-29T10:36:15;7.28;;;1.45;;
70796;SDS011;63842;52.144;5.360;2022-12-29T10:38:48;9.05;;;1.65;;
70796;SDS011;63842;52.144;5.360;2022-12-29T10:41:23;7.75;;;1.65;;
70796;SDS011;63842;52.144;5.360;2022-12-29T10:43:53;9.35;;;1.85;;
70796;SDS011;63842;52.144;5.360;2022-12-29T10:46:24;7.82;;;1.83;;
70796;SDS011;63842;52.144;5.360;2022-12-29T10:48:52;8.13;;;1.40;;
70796;SDS011;63842;52.144;5.360;2022-12-29T10:51:21;9.60;;;1.50;;
70796;SDS011;63842;52.144;5.360;2022-12-29T10:53:51;8.10;;;1.60;;
70796;SDS011;63842;52.144;5.360;2022-12-29T10:56:29;7.72;;;1.90;;
70796;SDS011;63842;52.144;5.360;2022-12-29T10:58:58;12.02;;;1.98;;
70796;SDS011;63842;52.144;5.360;2022-12-29T11:04:07;10.80;;;2.00;;
70796;SDS011;63842;52.144;5.360;2022-12-29T11:06:38;11.02;;;1.83;;
70796;SDS011;63842;52.144;5.360;2022-12-29T11:09:12;10.90;;;2.25;;
70796;SDS011;63842;52.144;5.360;2022-12-29T11:11:46;9.52;;;2.10;;
70796;SDS011;63842;52.144;5.360;2022-12-29T11:14:21;10.73;;;2.10;;
70796;SDS011;63842;52.144;5.360;2022-12-29T11:16:59;16.85;;;2.78;;
70796;SDS011;63842;52.144;5.360;2022-12-29T11:19:31;10.35;;;2.10;;
70796;SDS011;63842;52.144;5.360;2022-12-29T11:22:22;10.90;;;2.42;;
70796;SDS011;63842;52.144;5.360;2022-12-29T11:24:50;11.68;;;2.45;;
70796;SDS011;63842;52.144;5.360;2022-12-29T11:27:22;10.90;;;2.10;;
70796;SDS011;63842;52.144;5.360;2022-12-29T11:29:51;16.92;;;2.42;;
70796;SDS011;63842;52.144;5.360;2022-12-29T11:32:23;12.40;;;2.35;;
70796;SDS011;63842;52.144;5.360;2022-12-29T11:34:54;13.77;;;2.40;;
70796;SDS011;63842;52.144;5.360;2022-12-29T11:39:54;13.30;;;2.40;;
70796;SDS011;63842;52.144;5.360;2022-12-29T11:42:23;11.60;;;2.38;;
70796;SDS011;63842;52.144;5.360;2022-12-29T11:44:55;17.30;;;2.60;;
70796;SDS011;63842;52.144;5.360;2022-12-29T11:47:29;14.73;;;2.63;;
70796;SDS011;63842;52.144;5.360;2022-12-29T11:49:58;12.50;;;2.40;;
70796;SDS011;63842;52.144;5.360;2022-12-29T11:52:27;11.10;;;2.08;;
70796;SDS011;63842;52.144;5.360;2022-12-29T11:54:55;15.10;;;2.80;;
70796;SDS011;63842;52.144;5.360;2022-12-29T11:57:23;14.15;;;2.63;;
70796;SDS011;63842;52.144;5.360;2022-12-29T11:59:52;14.30;;;2.42;;
70796;SDS011;63842;52.144;5.360;2022-12-29T12:02:26;11.43;;;2.13;;
70796;SDS011;63842;52.144;5.360;2022-12-29T12:05:08;14.68;;;2.47;;
70796;SDS011;63842;52.144;5.360;2022-12-29T12:07:46;14.15;;;2.80;;
70796;SDS011;63842;52.144;5.360;2022-12-29T12:10:16;12.65;;;2.63;;
70796;SDS011;63842;52.144;5.360;2022-12-29T12:12:52;14.80;;;2.40;;
70796;SDS011;63842;52.144;5.360;2022-12-29T12:18:05;11.02;;;2.35;;
70796;SDS011;63842;52.144;5.360;2022-12-29T12:20:38;14.68;;;2.40;;
70796;SDS011;63842;52.144;5.360;2022-12-29T12:26:09;15.02;;;2.38;;
70796;SDS011;63842;52.144;5.360;2022-12-29T12:28:40;13.52;;;2.40;;
70796;SDS011;63842;52.144;5.360;2022-12-29T12:31:23;12.20;;;2.58;;
70796;SDS011;63842;52.144;5.360;2022-12-29T12:33:57;18.60;;;2.88;;
70796;SDS011;63842;52.144;5.360;2022-12-29T12:36:43;9.70;;;2.28;;
70796;SDS011;63842;52.144;5.360;2022-12-29T12:39:25;17.35;;;2.92;;
70796;SDS011;63842;52.144;5.360;2022-12-29T12:44:38;16.58;;;2.80;;
70796;SDS011;63842;52.144;5.360;2022-12-29T12:47:18;14.60;;;2.65;;
70796;SDS011;63842;52.144;5.360;2022-12-29T13:00:20;12.07;;;2.38;;
70796;SDS011;63842;52.144;5.360;2022-12-29T13:05:32;12.32;;;2.90;;
70796;SDS011;63842;52.144;5.360;2022-12-29T13:10:38;10.48;;;2.30;;
70796;SDS011;63842;52.144;5.360;2022-12-29T13:26:46;11.02;;;2.30;;
70796;SDS011;63842;52.144;5.360;2022-12-29T13:29:23;11.55;;;2.03;;
70796;SDS011;63842;52.144;5.360;2022-12-29T13:32:32;14.93;;;2.40;;
70796;SDS011;63842;52.144;5.360;2022-12-29T13:38:00;12.65;;;2.00;;
70796;SDS011;63842;52.144;5.360;2022-12-29T13:40:36;12.52;;;2.08;;
70796;SDS011;63842;52.144;5.360;2022-12-29T13:43:05;13.07;;;2.15;;
70796;SDS011;63842;52.144;5.360;2022-12-29T13:45:33;10.88;;;2.25;;
70796;SDS011;63842;52.144;5.360;2022-12-29T13:48:14;13.07;;;2.53;;
70796;SDS011;63842;52.144;5.360;2022-12-29T13:50:48;10.32;;;2.20;;
70796;SDS011;63842;52.144;5.360;2022-12-29T13:58:33;15.90;;;2.58;;
70796;SDS011;63842;52.144;5.360;2022-12-29T14:08:52;11.68;;;2.28;;
70796;SDS011;63842;52.144;5.360;2022-12-29T14:11:21;9.45;;;1.90;;
70796;SDS011;63842;52.144;5.360;2022-12-29T14:13:51;11.70;;;2.38;;
70796;SDS011;63842;52.144;5.360;2022-12-29T14:16:26;8.90;;;1.77;;
70796;SDS011;63842;52.144;5.360;2022-12-29T14:18:54;13.90;;;2.30;;
70796;SDS011;63842;52.144;5.360;2022-12-29T14:21:24;9.73;;;2.05;;
70796;SDS011;63842;52.144;5.360;2022-12-29T14:24:02;9.40;;;1.95;;
70796;SDS011;63842;52.144;5.360;2022-12-29T14:26:43;11.15;;;1.65;;
70796;SDS011;63842;52.144;5.360;2022-12-29T14:31:50;7.15;;;1.40;;
70796;SDS011;63842;52.144;5.360;2022-12-29T14:34:27;7.20;;;1.30;;
70796;SDS011;63842;52.144;5.360;2022-12-29T14:37:01;6.47;;;1.40;;
70796;SDS011;63842;52.144;5.360;2022-12-29T14:39:42;7.68;;;1.23;;
70796;SDS011;63842;52.144;5.360;2022-12-29T14:44:47;5.93;;;1.05;;
70796;SDS011;63842;52.144;5.360;2022-12-29T14:47:18;3.72;;;0.90;;
70796;SDS011;63842;52.144;5.360;2022-12-29T14:49:46;4.85;;;1.23;;
70796;SDS011;63842;52.144;5.360;2022-12-29T14:54:43;3.33;;;0.90;;
70796;SDS011;63842;52.144;5.360;2022-12-29T14:57:15;7.18;;;1.40;;
70796;SDS011;63842;52.144;5.360;2022-12-29T14:59:44;4.90;;;1.25;;
70796;SDS011;63842;52.144;5.360;2022-12-29T15:02:15;5.38;;;1.10;;
70796;SDS011;63842;52.144;5.360;2022-12-29T15:04:43;4.65;;;1.02;;
70796;SDS011;63842;52.144;5.360;2022-12-29T15:07:11;5.95;;;1.35;;
70796;SDS011;63842;52.144;5.360;2022-12-29T15:09:43;9.02;;;1.90;;
70796;SDS011;63842;52.144;5.360;2022-12-29T15:14:52;5.72;;;1.23;;
70796;SDS011;63842;52.144;5.360;2022-12-29T15:17:31;6.75;;;1.33;;
70796;SDS011;63842;52.144;5.360;2022-12-29T15:20:00;8.75;;;1.67;;
70796;SDS011;63842;52.144;5.360;2022-12-29T15:22:43;8.13;;;1.30;;
70796;SDS011;63842;52.144;5.360;2022-12-29T15:25:15;10.38;;;1.73;;
70796;SDS011;63842;52.144;5.360;2022-12-29T15:27:47;8.90;;;1.50;;
70796;SDS011;63842;52.144;5.360;2022-12-29T15:30:15;9.23;;;1.85;;
70796;SDS011;63842;52.144;5.360;2022-12-29T15:32:44;7.53;;;1.92;;
70796;SDS011;63842;52.144;5.360;2022-12-29T15:35:21;5.82;;;1.50;;
70796;SDS011;63842;52.144;5.360;2022-12-29T15:37:49;7.78;;;1.77;;
70796;SDS011;63842;52.144;5.360;2022-12-29T15:40:27;6.10;;;1.40;;
70796;SDS011;63842;52.144;5.360;2022-12-29T15:43:09;9.43;;;1.90;;
70796;SDS011;63842;52.144;5.360;2022-12-29T15:45:37;12.48;;;1.65;;
70796;SDS011;63842;52.144;5.360;2022-12-29T15:48:05;9.07;;;1.85;;
70796;SDS011;63842;52.144;5.360;2022-12-29T15:50:35;9.52;;;1.77;;
70796;SDS011;63842;52.144;5.360;2022-12-29T15:53:03;8.95;;;2.17;;
70796;SDS011;63842;52.144;5.360;2022-12-29T15:55:37;8.65;;;1.80;;
70796;SDS011;63842;52.144;5.360;2022-12-29T15:58:15;9.50;;;1.75;;
70796;SDS011;63842;52.144;5.360;2022-12-29T16:00:48;7.60;;;1.40;;
70796;SDS011;63842;52.144;5.360;2022-12-29T16:03:16;8.90;;;1.83;;
70796;SDS011;63842;52.144;5.360;2022-12-29T16:05:49;9.50;;;1.63;;
70796;SDS011;63842;52.144;5.360;2022-12-29T16:10:53;10.45;;;1.70;;
70796;SDS011;63842;52.144;5.360;2022-12-29T16:13:26;8.27;;;1.65;;
70796;SDS011;63842;52.144;5.360;2022-12-29T16:16:40;8.35;;;1.50;;
70796;SDS011;63842;52.144;5.360;2022-12-29T16:18:49;8.60;;;1.77;;
70796;SDS011;63842;52.144;5.360;2022-12-29T16:21:25;8.40;;;1.70;;
70796;SDS011;63842;52.144;5.360;2022-12-29T16:23:53;8.15;;;1.50;;
70796;SDS011;63842;52.144;5.360;2022-12-29T16:26:21;8.52;;;1.73;;
70796;SDS011;63842;52.144;5.360;2022-12-29T16:28:51;8.43;;;1.67;;
70796;SDS011;63842;52.144;5.360;2022-12-29T16:31:28;7.78;;;1.48;;
70796;SDS011;63842;52.144;5.360;2022-12-29T16:34:41;9.77;;;1.73;;
70796;SDS011;63842;52.144;5.360;2022-12-29T16:37:27;4.93;;;1.50;;
70796;SDS011;63842;52.144;5.360;2022-12-29T16:39:55;4.78;;;1.30;;
70796;SDS011;63842;52.144;5.360;2022-12-29T16:47:35;10.50;;;1.70;;
70796;SDS011;63842;52.144;5.360;2022-12-29T16:50:10;5.93;;;1.23;;
70796;SDS011;63842;52.144;5.360;2022-12-29T16:52:38;4.95;;;1.33;;
70796;SDS011;63842;52.144;5.360;2022-12-29T16:55:05;5.97;;;1.40;;
70796;SDS011;63842;52.144;5.360;2022-12-29T16:57:33;5.70;;;1.13;;
70796;SDS011;63842;52.144;5.360;2022-12-29T17:00:07;7.15;;;1.40;;
70796;SDS011;63842;52.144;5.360;2022-12-29T17:02:44;7.50;;;1.38;;
70796;SDS011;63842;52.144;5.360;2022-12-29T17:05:15;7.07;;;1.10;;
70796;SDS011;63842;52.144;5.360;2022-12-29T17:07:43;8.05;;;1.52;;
70796;SDS011;63842;52.144;5.360;2022-12-29T17:10:11;5.72;;;1.50;;
70796;SDS011;63842;52.144;5.360;2022-12-29T17:12:40;5.13;;;1.20;;
70796;SDS011;63842;52.144;5.360;2022-12-29T17:15:15;10.57;;;1.35;;
70796;SDS011;63842;52.144;5.360;2022-12-29T17:17:51;7.75;;;1.70;;